sensor_id;sensor_type;location;lat;lon;timestamp;P1;durP1;ratioP1;P2;durP2;ratioP2
14611;SDS011;7392;52.078;11.650;2023-07-02T00:00:04;2.33;;;1.63;;
14611;SDS011;7392;52.078;11.650;2023-07-02T00:02:36;2.10;;;1.90;;
14611;SDS011;7392;52.078;11.650;2023-07-02T00:05:05;1.70;;;1.60;;
14611;SDS011;7392;52.078;11.650;2023-07-02T00:07:33;2.13;;;1.90;;
14611;SDS011;7392;52.078;11.650;2023-07-02T00:10:03;2.23;;;1.63;;
14611;SDS011;7392;52.078;11.650;2023-07-02T00:12:33;1.80;;;1.70;;
14611;SDS011;7392;52.078;11.650;2023-07-02T00:15:01;1.93;;;1.73;;
14611;SDS011;7392;52.078;11.650;2023-07-02T00:17:29;2.27;;;1.73;;
14611;SDS011;7392;52.078;11.650;2023-07-02T00:19:57;2.20;;;2.00;;
14611;SDS011;7392;52.078;11.650;2023-07-02T00:22:29;2.00;;;1.70;;
14611;SDS011;7392;52.078;11.650;2023-07-02T00:24:57;2.07;;;1.87;;
14611;SDS011;7392;52.078;11.650;2023-07-02T00:27:25;1.83;;;1.63;;
14611;SDS011;7392;52.078;11.650;2023-07-02T00:29:54;2.00;;;1.90;;
14611;SDS011;7392;52.078;11.650;2023-07-02T00:32:22;2.00;;;1.80;;
14611;SDS011;7392;52.078;11.650;2023-07-02T00:34:49;1.80;;;1.70;;
14611;SDS011;7392;52.078;11.650;2023-07-02T00:37:17;2.10;;;1.90;;
14611;SDS011;7392;52.078;11.650;2023-07-02T00:39:45;1.70;;;1.60;;
14611;SDS011;7392;52.078;11.650;2023-07-02T00:42:13;2.10;;;1.90;;
14611;SDS011;7392;52.078;11.650;2023-07-02T00:44:42;1.90;;;1.77;;
14611;SDS011;7392;52.078;11.650;2023-07-02T00:47:12;2.67;;;1.90;;
14611;SDS011;7392;52.078;11.650;2023-07-02T00:49:40;2.10;;;1.83;;
14611;SDS011;7392;52.078;11.650;2023-07-02T00:52:08;2.03;;;1.83;;
14611;SDS011;7392;52.078;11.650;2023-07-02T00:54:36;2.03;;;1.80;;
14611;SDS011;7392;52.078;11.650;2023-07-02T00:57:04;2.20;;;2.00;;
14611;SDS011;7392;52.078;11.650;2023-07-02T00:59:33;1.80;;;1.70;;
14611;SDS011;7392;52.078;11.650;2023-07-02T01:02:02;1.90;;;1.80;;
14611;SDS011;7392;52.078;11.650;2023-07-02T01:04:32;1.90;;;1.80;;
14611;SDS011;7392;52.078;11.650;2023-07-02T01:07:00;1.90;;;1.80;;
14611;SDS011;7392;52.078;11.650;2023-07-02T01:09:30;2.07;;;1.80;;
14611;SDS011;7392;52.078;11.650;2023-07-02T01:11:59;1.70;;;1.60;;
14611;SDS011;7392;52.078;11.650;2023-07-02T01:14:30;1.67;;;1.57;;
14611;SDS011;7392;52.078;11.650;2023-07-02T01:17:01;1.73;;;1.60;;
14611;SDS011;7392;52.078;11.650;2023-07-02T01:19:37;2.00;;;1.83;;
14611;SDS011;7392;52.078;11.650;2023-07-02T01:22:09;1.80;;;1.70;;
14611;SDS011;7392;52.078;11.650;2023-07-02T01:24:38;1.90;;;1.80;;
14611;SDS011;7392;52.078;11.650;2023-07-02T01:27:06;1.40;;;1.30;;
14611;SDS011;7392;52.078;11.650;2023-07-02T01:29:36;1.80;;;1.70;;
14611;SDS011;7392;52.078;11.650;2023-07-02T01:32:04;1.70;;;1.60;;
14611;SDS011;7392;52.078;11.650;2023-07-02T01:34:33;1.70;;;1.60;;
14611;SDS011;7392;52.078;11.650;2023-07-02T01:37:02;1.77;;;1.67;;
14611;SDS011;7392;52.078;11.650;2023-07-02T01:39:30;1.87;;;1.77;;
14611;SDS011;7392;52.078;11.650;2023-07-02T01:42:07;1.93;;;1.57;;
14611;SDS011;7392;52.078;11.650;2023-07-02T01:44:36;2.37;;;2.00;;
14611;SDS011;7392;52.078;11.650;2023-07-02T01:47:04;2.23;;;2.03;;
14611;SDS011;7392;52.078;11.650;2023-07-02T01:49:32;1.93;;;1.83;;
14611;SDS011;7392;52.078;11.650;2023-07-02T01:52:02;2.43;;;2.07;;
14611;SDS011;7392;52.078;11.650;2023-07-02T01:54:31;2.40;;;2.20;;
14611;SDS011;7392;52.078;11.650;2023-07-02T01:57:00;2.30;;;2.10;;
14611;SDS011;7392;52.078;11.650;2023-07-02T01:59:28;2.07;;;1.87;;
14611;SDS011;7392;52.078;11.650;2023-07-02T02:01:57;2.00;;;1.90;;
14611;SDS011;7392;52.078;11.650;2023-07-02T02:04:24;2.10;;;2.00;;
14611;SDS011;7392;52.078;11.650;2023-07-02T02:06:52;2.30;;;2.10;;
14611;SDS011;7392;52.078;11.650;2023-07-02T02:09:21;1.90;;;1.80;;
14611;SDS011;7392;52.078;11.650;2023-07-02T02:11:49;1.77;;;1.67;;
14611;SDS011;7392;52.078;11.650;2023-07-02T02:14:19;1.87;;;1.77;;
14611;SDS011;7392;52.078;11.650;2023-07-02T02:16:48;2.00;;;1.90;;
14611;SDS011;7392;52.078;11.650;2023-07-02T02:19:16;2.07;;;1.90;;
14611;SDS011;7392;52.078;11.650;2023-07-02T02:21:44;1.80;;;1.70;;
14611;SDS011;7392;52.078;11.650;2023-07-02T02:24:12;2.57;;;1.73;;
14611;SDS011;7392;52.078;11.650;2023-07-02T02:26:41;2.30;;;1.80;;
14611;SDS011;7392;52.078;11.650;2023-07-02T02:29:09;1.80;;;1.70;;
14611;SDS011;7392;52.078;11.650;2023-07-02T02:31:37;1.50;;;1.40;;
14611;SDS011;7392;52.078;11.650;2023-07-02T02:34:05;1.63;;;1.53;;
14611;SDS011;7392;52.078;11.650;2023-07-02T02:36:33;1.70;;;1.60;;
14611;SDS011;7392;52.078;11.650;2023-07-02T02:39:01;1.93;;;1.80;;
14611;SDS011;7392;52.078;11.650;2023-07-02T02:41:29;2.07;;;1.87;;
14611;SDS011;7392;52.078;11.650;2023-07-02T02:43:58;1.80;;;1.70;;
14611;SDS011;7392;52.078;11.650;2023-07-02T02:46:26;1.60;;;1.50;;
14611;SDS011;7392;52.078;11.650;2023-07-02T02:48:54;1.80;;;1.70;;
14611;SDS011;7392;52.078;11.650;2023-07-02T02:51:21;1.40;;;1.30;;
14611;SDS011;7392;52.078;11.650;2023-07-02T02:53:49;1.63;;;1.53;;
14611;SDS011;7392;52.078;11.650;2023-07-02T02:56:17;1.50;;;1.40;;
14611;SDS011;7392;52.078;11.650;2023-07-02T02:58:44;1.70;;;1.60;;
14611;SDS011;7392;52.078;11.650;2023-07-02T03:01:13;1.40;;;1.30;;
14611;SDS011;7392;52.078;11.650;2023-07-02T03:03:41;1.40;;;1.30;;
14611;SDS011;7392;52.078;11.650;2023-07-02T03:06:12;1.70;;;1.60;;
14611;SDS011;7392;52.078;11.650;2023-07-02T03:08:41;1.40;;;1.30;;
14611;SDS011;7392;52.078;11.650;2023-07-02T03:11:08;1.87;;;1.60;;
14611;SDS011;7392;52.078;11.650;2023-07-02T03:13:36;1.67;;;1.57;;
14611;SDS011;7392;52.078;11.650;2023-07-02T03:16:04;1.53;;;1.43;;
14611;SDS011;7392;52.078;11.650;2023-07-02T03:18:33;1.40;;;1.30;;
14611;SDS011;7392;52.078;11.650;2023-07-02T03:21:01;1.50;;;1.40;;
14611;SDS011;7392;52.078;11.650;2023-07-02T03:23:29;1.47;;;1.37;;
14611;SDS011;7392;52.078;11.650;2023-07-02T03:25:57;1.60;;;1.30;;
14611;SDS011;7392;52.078;11.650;2023-07-02T03:28:25;1.43;;;1.33;;
14611;SDS011;7392;52.078;11.650;2023-07-02T03:30:52;1.60;;;1.50;;
14611;SDS011;7392;52.078;11.650;2023-07-02T03:33:20;1.27;;;1.17;;
14611;SDS011;7392;52.078;11.650;2023-07-02T03:35:49;1.40;;;1.30;;
14611;SDS011;7392;52.078;11.650;2023-07-02T03:38:17;1.27;;;1.17;;
14611;SDS011;7392;52.078;11.650;2023-07-02T03:40:45;1.60;;;1.50;;
14611;SDS011;7392;52.078;11.650;2023-07-02T03:43:13;1.40;;;1.30;;
14611;SDS011;7392;52.078;11.650;2023-07-02T03:45:41;1.50;;;1.40;;
14611;SDS011;7392;52.078;11.650;2023-07-02T03:48:09;1.30;;;1.20;;
14611;SDS011;7392;52.078;11.650;2023-07-02T03:50:36;1.50;;;1.40;;
14611;SDS011;7392;52.078;11.650;2023-07-02T03:53:05;1.53;;;1.40;;
14611;SDS011;7392;52.078;11.650;2023-07-02T03:55:33;1.50;;;1.40;;
14611;SDS011;7392;52.078;11.650;2023-07-02T03:58:01;1.40;;;1.30;;
14611;SDS011;7392;52.078;11.650;2023-07-02T04:00:29;1.50;;;1.40;;
14611;SDS011;7392;52.078;11.650;2023-07-02T04:02:56;1.20;;;1.10;;
14611;SDS011;7392;52.078;11.650;2023-07-02T04:05:24;1.47;;;1.30;;
14611;SDS011;7392;52.078;11.650;2023-07-02T04:07:52;1.60;;;1.50;;
14611;SDS011;7392;52.078;11.650;2023-07-02T04:10:21;1.20;;;1.10;;
14611;SDS011;7392;52.078;11.650;2023-07-02T04:12:49;1.40;;;1.20;;
14611;SDS011;7392;52.078;11.650;2023-07-02T04:15:16;1.30;;;1.20;;
14611;SDS011;7392;52.078;11.650;2023-07-02T04:17:44;1.00;;;1.00;;
14611;SDS011;7392;52.078;11.650;2023-07-02T04:20:12;1.20;;;1.10;;
14611;SDS011;7392;52.078;11.650;2023-07-02T04:22:40;1.23;;;1.13;;
14611;SDS011;7392;52.078;11.650;2023-07-02T04:25:07;1.40;;;1.30;;
14611;SDS011;7392;52.078;11.650;2023-07-02T04:27:57;1.10;;;1.00;;
14611;SDS011;7392;52.078;11.650;2023-07-02T04:30:25;1.30;;;1.20;;
14611;SDS011;7392;52.078;11.650;2023-07-02T04:32:53;1.23;;;1.13;;
14611;SDS011;7392;52.078;11.650;2023-07-02T04:35:21;1.07;;;1.03;;
14611;SDS011;7392;52.078;11.650;2023-07-02T04:37:48;0.90;;;0.90;;
14611;SDS011;7392;52.078;11.650;2023-07-02T04:40:16;1.20;;;1.10;;
14611;SDS011;7392;52.078;11.650;2023-07-02T04:42:44;1.60;;;1.50;;
14611;SDS011;7392;52.078;11.650;2023-07-02T04:45:15;2.67;;;1.67;;
14611;SDS011;7392;52.078;11.650;2023-07-02T04:47:43;1.70;;;1.60;;
14611;SDS011;7392;52.078;11.650;2023-07-02T04:50:12;1.60;;;1.50;;
14611;SDS011;7392;52.078;11.650;2023-07-02T04:52:40;2.50;;;1.90;;
14611;SDS011;7392;52.078;11.650;2023-07-02T04:55:08;2.40;;;2.10;;
14611;SDS011;7392;52.078;11.650;2023-07-02T04:57:36;2.10;;;1.90;;
14611;SDS011;7392;52.078;11.650;2023-07-02T05:00:04;2.10;;;1.80;;
14611;SDS011;7392;52.078;11.650;2023-07-02T05:02:36;2.13;;;1.80;;
14611;SDS011;7392;52.078;11.650;2023-07-02T05:05:04;2.63;;;1.73;;
14611;SDS011;7392;52.078;11.650;2023-07-02T05:07:32;1.60;;;1.50;;
14611;SDS011;7392;52.078;11.650;2023-07-02T05:09:59;2.17;;;1.77;;
14611;SDS011;7392;52.078;11.650;2023-07-02T05:12:27;2.47;;;1.90;;
14611;SDS011;7392;52.078;11.650;2023-07-02T05:14:55;2.00;;;1.80;;
14611;SDS011;7392;52.078;11.650;2023-07-02T05:17:23;2.07;;;1.70;;
14611;SDS011;7392;52.078;11.650;2023-07-02T05:19:52;2.27;;;1.80;;
14611;SDS011;7392;52.078;11.650;2023-07-02T05:22:20;1.60;;;1.50;;
14611;SDS011;7392;52.078;11.650;2023-07-02T05:24:47;1.67;;;1.50;;
14611;SDS011;7392;52.078;11.650;2023-07-02T05:27:15;2.20;;;2.00;;
14611;SDS011;7392;52.078;11.650;2023-07-02T05:29:43;2.20;;;2.00;;
14611;SDS011;7392;52.078;11.650;2023-07-02T05:32:10;3.70;;;2.30;;
14611;SDS011;7392;52.078;11.650;2023-07-02T05:34:38;2.33;;;2.13;;
14611;SDS011;7392;52.078;11.650;2023-07-02T05:37:07;2.63;;;1.90;;
14611;SDS011;7392;52.078;11.650;2023-07-02T05:39:35;3.13;;;1.90;;
14611;SDS011;7392;52.078;11.650;2023-07-02T05:42:03;2.20;;;2.00;;
14611;SDS011;7392;52.078;11.650;2023-07-02T05:44:31;2.50;;;1.90;;
14611;SDS011;7392;52.078;11.650;2023-07-02T05:46:59;1.70;;;1.60;;
14611;SDS011;7392;52.078;11.650;2023-07-02T05:49:27;2.00;;;1.80;;
14611;SDS011;7392;52.078;11.650;2023-07-02T05:51:55;1.97;;;1.70;;
14611;SDS011;7392;52.078;11.650;2023-07-02T05:54:24;2.30;;;1.77;;
14611;SDS011;7392;52.078;11.650;2023-07-02T05:56:52;2.77;;;1.77;;
14611;SDS011;7392;52.078;11.650;2023-07-02T05:59:19;2.13;;;1.93;;
14611;SDS011;7392;52.078;11.650;2023-07-02T06:01:47;2.40;;;2.20;;
14611;SDS011;7392;52.078;11.650;2023-07-02T06:04:15;3.00;;;1.80;;
14611;SDS011;7392;52.078;11.650;2023-07-02T06:06:43;2.63;;;1.97;;
14611;SDS011;7392;52.078;11.650;2023-07-02T06:09:10;2.40;;;2.20;;
14611;SDS011;7392;52.078;11.650;2023-07-02T06:11:39;2.73;;;1.93;;
14611;SDS011;7392;52.078;11.650;2023-07-02T06:14:07;4.00;;;2.17;;
14611;SDS011;7392;52.078;11.650;2023-07-02T06:16:35;1.90;;;1.70;;
14611;SDS011;7392;52.078;11.650;2023-07-02T06:19:02;2.20;;;2.00;;
14611;SDS011;7392;52.078;11.650;2023-07-02T06:21:30;2.40;;;1.80;;
14611;SDS011;7392;52.078;11.650;2023-07-02T06:23:58;2.30;;;1.90;;
14611;SDS011;7392;52.078;11.650;2023-07-02T06:26:28;2.33;;;2.13;;
14611;SDS011;7392;52.078;11.650;2023-07-02T06:28:57;3.20;;;2.30;;
14611;SDS011;7392;52.078;11.650;2023-07-02T06:31:25;2.40;;;2.20;;
14611;SDS011;7392;52.078;11.650;2023-07-02T06:33:53;2.53;;;2.20;;
14611;SDS011;7392;52.078;11.650;2023-07-02T06:36:21;2.47;;;2.30;;
14611;SDS011;7392;52.078;11.650;2023-07-02T06:38:49;2.00;;;1.90;;
14611;SDS011;7392;52.078;11.650;2023-07-02T06:41:17;2.60;;;2.40;;
14611;SDS011;7392;52.078;11.650;2023-07-02T06:43:44;2.40;;;2.20;;
14611;SDS011;7392;52.078;11.650;2023-07-02T06:46:13;3.17;;;2.63;;
14611;SDS011;7392;52.078;11.650;2023-07-02T06:48:41;2.30;;;2.10;;
14611;SDS011;7392;52.078;11.650;2023-07-02T06:51:09;2.40;;;2.20;;
14611;SDS011;7392;52.078;11.650;2023-07-02T06:53:38;2.63;;;2.43;;
14611;SDS011;7392;52.078;11.650;2023-07-02T06:56:07;2.93;;;2.57;;
14611;SDS011;7392;52.078;11.650;2023-07-02T06:58:35;2.60;;;2.40;;
14611;SDS011;7392;52.078;11.650;2023-07-02T07:01:02;2.40;;;2.20;;
14611;SDS011;7392;52.078;11.650;2023-07-02T07:03:34;2.97;;;2.77;;
14611;SDS011;7392;52.078;11.650;2023-07-02T07:06:10;3.03;;;2.80;;
14611;SDS011;7392;52.078;11.650;2023-07-02T07:08:43;2.67;;;2.47;;
14611;SDS011;7392;52.078;11.650;2023-07-02T07:11:20;3.00;;;2.70;;
14611;SDS011;7392;52.078;11.650;2023-07-02T07:13:54;2.80;;;2.60;;
14611;SDS011;7392;52.078;11.650;2023-07-02T07:16:34;3.40;;;3.10;;
14611;SDS011;7392;52.078;11.650;2023-07-02T07:19:16;3.70;;;3.40;;
14611;SDS011;7392;52.078;11.650;2023-07-02T07:21:53;3.67;;;3.27;;
14611;SDS011;7392;52.078;11.650;2023-07-02T07:24:21;3.30;;;3.00;;
14611;SDS011;7392;52.078;11.650;2023-07-02T07:26:49;3.10;;;2.90;;
14611;SDS011;7392;52.078;11.650;2023-07-02T07:29:17;2.90;;;2.70;;
14611;SDS011;7392;52.078;11.650;2023-07-02T07:31:44;3.43;;;3.13;;
14611;SDS011;7392;52.078;11.650;2023-07-02T07:34:12;3.30;;;3.10;;
14611;SDS011;7392;52.078;11.650;2023-07-02T07:36:41;3.37;;;3.07;;
14611;SDS011;7392;52.078;11.650;2023-07-02T07:39:09;4.00;;;3.70;;
14611;SDS011;7392;52.078;11.650;2023-07-02T07:41:37;3.50;;;3.20;;
14611;SDS011;7392;52.078;11.650;2023-07-02T07:44:05;3.43;;;3.13;;
14611;SDS011;7392;52.078;11.650;2023-07-02T07:46:32;3.77;;;3.47;;
14611;SDS011;7392;52.078;11.650;2023-07-02T07:49:00;3.70;;;3.40;;
14611;SDS011;7392;52.078;11.650;2023-07-02T07:51:30;5.83;;;4.30;;
14611;SDS011;7392;52.078;11.650;2023-07-02T07:53:58;4.30;;;3.90;;
14611;SDS011;7392;52.078;11.650;2023-07-02T07:56:26;3.70;;;3.23;;
14611;SDS011;7392;52.078;11.650;2023-07-02T07:58:54;4.70;;;3.80;;
14611;SDS011;7392;52.078;11.650;2023-07-02T08:01:21;4.13;;;3.73;;
14611;SDS011;7392;52.078;11.650;2023-07-02T08:03:49;5.10;;;4.00;;
14611;SDS011;7392;52.078;11.650;2023-07-02T08:06:17;4.30;;;3.90;;
14611;SDS011;7392;52.078;11.650;2023-07-02T08:08:46;4.57;;;4.17;;
14611;SDS011;7392;52.078;11.650;2023-07-02T08:11:14;5.33;;;4.13;;
14611;SDS011;7392;52.078;11.650;2023-07-02T08:13:42;6.13;;;4.67;;
14611;SDS011;7392;52.078;11.650;2023-07-02T08:16:10;4.93;;;4.50;;
14611;SDS011;7392;52.078;11.650;2023-07-02T08:18:38;6.70;;;4.87;;
14611;SDS011;7392;52.078;11.650;2023-07-02T08:21:06;5.80;;;5.30;;
14611;SDS011;7392;52.078;11.650;2023-07-02T08:23:35;7.63;;;5.50;;
14611;SDS011;7392;52.078;11.650;2023-07-02T08:26:04;11.70;;;6.30;;
14611;SDS011;7392;52.078;11.650;2023-07-02T08:28:31;8.57;;;5.57;;
14611;SDS011;7392;52.078;11.650;2023-07-02T08:30:59;7.93;;;5.13;;
14611;SDS011;7392;52.078;11.650;2023-07-02T08:33:27;12.13;;;6.17;;
14611;SDS011;7392;52.078;11.650;2023-07-02T08:35:54;9.87;;;5.97;;
14611;SDS011;7392;52.078;11.650;2023-07-02T08:38:23;15.10;;;6.37;;
14611;SDS011;7392;52.078;11.650;2023-07-02T08:40:51;10.07;;;6.20;;
14611;SDS011;7392;52.078;11.650;2023-07-02T08:43:20;10.90;;;5.93;;
14611;SDS011;7392;52.078;11.650;2023-07-02T08:45:48;11.07;;;6.33;;
14611;SDS011;7392;52.078;11.650;2023-07-02T08:48:17;12.40;;;6.30;;
14611;SDS011;7392;52.078;11.650;2023-07-02T08:50:48;11.70;;;6.30;;
14611;SDS011;7392;52.078;11.650;2023-07-02T08:53:16;13.93;;;6.10;;
14611;SDS011;7392;52.078;11.650;2023-07-02T08:55:44;12.50;;;6.37;;
14611;SDS011;7392;52.078;11.650;2023-07-02T08:58:12;10.40;;;6.43;;
14611;SDS011;7392;52.078;11.650;2023-07-02T09:00:52;13.17;;;6.70;;
14611;SDS011;7392;52.078;11.650;2023-07-02T09:03:31;13.73;;;6.87;;
14611;SDS011;7392;52.078;11.650;2023-07-02T09:06:03;11.67;;;6.50;;
14611;SDS011;7392;52.078;11.650;2023-07-02T09:08:31;13.00;;;6.50;;
14611;SDS011;7392;52.078;11.650;2023-07-02T09:11:07;10.10;;;5.90;;
14611;SDS011;7392;52.078;11.650;2023-07-02T09:13:45;10.77;;;6.00;;
14611;SDS011;7392;52.078;11.650;2023-07-02T09:16:22;8.50;;;5.63;;
14611;SDS011;7392;52.078;11.650;2023-07-02T09:18:58;11.60;;;6.50;;
14611;SDS011;7392;52.078;11.650;2023-07-02T09:21:26;10.53;;;6.60;;
14611;SDS011;7392;52.078;11.650;2023-07-02T09:23:54;10.00;;;5.90;;
14611;SDS011;7392;52.078;11.650;2023-07-02T09:26:23;8.50;;;5.83;;
14611;SDS011;7392;52.078;11.650;2023-07-02T09:28:59;10.03;;;6.33;;
14611;SDS011;7392;52.078;11.650;2023-07-02T09:31:29;9.97;;;6.30;;
14611;SDS011;7392;52.078;11.650;2023-07-02T09:34:01;11.80;;;6.17;;
14611;SDS011;7392;52.078;11.650;2023-07-02T09:36:29;10.27;;;6.23;;
14611;SDS011;7392;52.078;11.650;2023-07-02T09:38:57;7.27;;;5.30;;
14611;SDS011;7392;52.078;11.650;2023-07-02T09:41:25;8.97;;;5.87;;
14611;SDS011;7392;52.078;11.650;2023-07-02T09:43:53;12.17;;;6.40;;
14611;SDS011;7392;52.078;11.650;2023-07-02T09:46:21;9.53;;;6.20;;
14611;SDS011;7392;52.078;11.650;2023-07-02T09:48:50;7.97;;;5.77;;
14611;SDS011;7392;52.078;11.650;2023-07-02T09:51:18;10.20;;;5.97;;
14611;SDS011;7392;52.078;11.650;2023-07-02T09:53:46;10.40;;;5.83;;
14611;SDS011;7392;52.078;11.650;2023-07-02T09:56:14;12.77;;;6.57;;
14611;SDS011;7392;52.078;11.650;2023-07-02T09:58:43;11.80;;;6.40;;
14611;SDS011;7392;52.078;11.650;2023-07-02T10:01:11;15.63;;;6.40;;
14611;SDS011;7392;52.078;11.650;2023-07-02T10:03:39;12.67;;;6.57;;
14611;SDS011;7392;52.078;11.650;2023-07-02T10:06:08;11.33;;;6.93;;
14611;SDS011;7392;52.078;11.650;2023-07-02T10:08:36;12.37;;;6.73;;
14611;SDS011;7392;52.078;11.650;2023-07-02T10:11:07;11.87;;;6.10;;
14611;SDS011;7392;52.078;11.650;2023-07-02T10:13:37;11.57;;;6.47;;
14611;SDS011;7392;52.078;11.650;2023-07-02T10:16:05;11.10;;;6.47;;
14611;SDS011;7392;52.078;11.650;2023-07-02T10:18:33;12.70;;;6.17;;
14611;SDS011;7392;52.078;11.650;2023-07-02T10:21:13;9.47;;;6.23;;
14611;SDS011;7392;52.078;11.650;2023-07-02T10:23:42;15.47;;;6.83;;
14611;SDS011;7392;52.078;11.650;2023-07-02T10:26:12;12.73;;;6.53;;
14611;SDS011;7392;52.078;11.650;2023-07-02T10:29:03;16.13;;;6.97;;
14611;SDS011;7392;52.078;11.650;2023-07-02T10:31:31;10.83;;;7.17;;
14611;SDS011;7392;52.078;11.650;2023-07-02T10:33:58;10.00;;;6.63;;
14611;SDS011;7392;52.078;11.650;2023-07-02T10:36:26;9.53;;;6.57;;
14611;SDS011;7392;52.078;11.650;2023-07-02T10:39:00;13.10;;;7.77;;
14611;SDS011;7392;52.078;11.650;2023-07-02T10:41:30;8.67;;;6.17;;
14611;SDS011;7392;52.078;11.650;2023-07-02T10:44:08;9.23;;;6.03;;
14611;SDS011;7392;52.078;11.650;2023-07-02T10:46:43;11.30;;;7.00;;
14611;SDS011;7392;52.078;11.650;2023-07-02T10:49:11;8.77;;;6.30;;
14611;SDS011;7392;52.078;11.650;2023-07-02T10:51:39;14.03;;;7.00;;
14611;SDS011;7392;52.078;11.650;2023-07-02T10:54:07;9.77;;;6.33;;
14611;SDS011;7392;52.078;11.650;2023-07-02T10:56:35;9.47;;;6.63;;
14611;SDS011;7392;52.078;11.650;2023-07-02T10:59:02;9.57;;;6.47;;
14611;SDS011;7392;52.078;11.650;2023-07-02T11:01:31;11.10;;;6.70;;
14611;SDS011;7392;52.078;11.650;2023-07-02T11:04:00;10.73;;;6.40;;
14611;SDS011;7392;52.078;11.650;2023-07-02T11:06:29;10.40;;;7.03;;
14611;SDS011;7392;52.078;11.650;2023-07-02T11:08:59;11.53;;;6.80;;
14611;SDS011;7392;52.078;11.650;2023-07-02T11:11:27;12.13;;;7.50;;
14611;SDS011;7392;52.078;11.650;2023-07-02T11:13:55;15.90;;;7.47;;
14611;SDS011;7392;52.078;11.650;2023-07-02T11:16:23;12.20;;;6.73;;
14611;SDS011;7392;52.078;11.650;2023-07-02T11:18:54;9.97;;;6.83;;
14611;SDS011;7392;52.078;11.650;2023-07-02T11:21:33;11.90;;;7.00;;
14611;SDS011;7392;52.078;11.650;2023-07-02T11:24:01;12.80;;;6.90;;
14611;SDS011;7392;52.078;11.650;2023-07-02T11:26:36;10.83;;;6.80;;
14611;SDS011;7392;52.078;11.650;2023-07-02T11:29:06;10.27;;;6.87;;
14611;SDS011;7392;52.078;11.650;2023-07-02T11:31:36;13.43;;;7.13;;
14611;SDS011;7392;52.078;11.650;2023-07-02T11:34:12;9.33;;;7.13;;
14611;SDS011;7392;52.078;11.650;2023-07-02T11:36:41;11.27;;;6.63;;
14611;SDS011;7392;52.078;11.650;2023-07-02T11:39:09;10.10;;;6.93;;
14611;SDS011;7392;52.078;11.650;2023-07-02T11:41:36;12.10;;;7.33;;
14611;SDS011;7392;52.078;11.650;2023-07-02T11:44:05;12.43;;;6.73;;
14611;SDS011;7392;52.078;11.650;2023-07-02T11:46:33;10.53;;;6.60;;
14611;SDS011;7392;52.078;11.650;2023-07-02T11:49:01;10.07;;;6.43;;
14611;SDS011;7392;52.078;11.650;2023-07-02T11:51:32;14.23;;;7.47;;
14611;SDS011;7392;52.078;11.650;2023-07-02T11:53:59;12.43;;;6.83;;
14611;SDS011;7392;52.078;11.650;2023-07-02T11:56:27;11.20;;;6.57;;
14611;SDS011;7392;52.078;11.650;2023-07-02T11:58:54;10.23;;;7.00;;
14611;SDS011;7392;52.078;11.650;2023-07-02T12:01:22;10.70;;;6.50;;
14611;SDS011;7392;52.078;11.650;2023-07-02T12:03:50;8.87;;;6.63;;
14611;SDS011;7392;52.078;11.650;2023-07-02T12:06:18;10.17;;;6.37;;
14611;SDS011;7392;52.078;11.650;2023-07-02T12:08:47;11.27;;;7.13;;
14611;SDS011;7392;52.078;11.650;2023-07-02T12:11:14;10.83;;;6.63;;
14611;SDS011;7392;52.078;11.650;2023-07-02T12:13:43;11.07;;;6.77;;
14611;SDS011;7392;52.078;11.650;2023-07-02T12:16:10;14.07;;;6.90;;
14611;SDS011;7392;52.078;11.650;2023-07-02T12:18:38;11.17;;;6.77;;
14611;SDS011;7392;52.078;11.650;2023-07-02T12:21:06;9.57;;;6.43;;
14611;SDS011;7392;52.078;11.650;2023-07-02T12:23:33;13.53;;;7.40;;
14611;SDS011;7392;52.078;11.650;2023-07-02T12:26:02;12.90;;;6.73;;
14611;SDS011;7392;52.078;11.650;2023-07-02T12:28:30;10.10;;;6.90;;
14611;SDS011;7392;52.078;11.650;2023-07-02T12:30:58;11.67;;;7.53;;
14611;SDS011;7392;52.078;11.650;2023-07-02T12:33:26;11.80;;;7.00;;
14611;SDS011;7392;52.078;11.650;2023-07-02T12:35:53;12.15;;;7.25;;
14611;SDS011;7392;52.078;11.650;2023-07-02T12:38:21;9.90;;;6.80;;
14611;SDS011;7392;52.078;11.650;2023-07-02T12:40:49;9.52;;;6.40;;
14611;SDS011;7392;52.078;11.650;2023-07-02T12:43:18;10.55;;;6.82;;
14611;SDS011;7392;52.078;11.650;2023-07-02T12:45:46;11.30;;;6.60;;
14611;SDS011;7392;52.078;11.650;2023-07-02T12:48:14;8.53;;;6.40;;
14611;SDS011;7392;52.078;11.650;2023-07-02T12:50:45;10.15;;;6.60;;
14611;SDS011;7392;52.078;11.650;2023-07-02T12:53:20;10.67;;;6.30;;
14611;SDS011;7392;52.078;11.650;2023-07-02T12:55:48;13.33;;;7.00;;
14611;SDS011;7392;52.078;11.650;2023-07-02T12:58:18;10.73;;;6.40;;
14611;SDS011;7392;52.078;11.650;2023-07-02T13:00:46;6.97;;;5.67;;
14611;SDS011;7392;52.078;11.650;2023-07-02T13:03:16;11.25;;;6.90;;
14611;SDS011;7392;52.078;11.650;2023-07-02T13:05:47;11.73;;;6.73;;
14611;SDS011;7392;52.078;11.650;2023-07-02T13:08:15;10.90;;;6.57;;
14611;SDS011;7392;52.078;11.650;2023-07-02T13:10:43;8.60;;;6.00;;
14611;SDS011;7392;52.078;11.650;2023-07-02T13:13:11;10.90;;;6.75;;
14611;SDS011;7392;52.078;11.650;2023-07-02T13:15:50;11.27;;;6.67;;
14611;SDS011;7392;52.078;11.650;2023-07-02T13:18:18;10.83;;;6.53;;
14611;SDS011;7392;52.078;11.650;2023-07-02T13:20:46;10.13;;;6.20;;
14611;SDS011;7392;52.078;11.650;2023-07-02T13:23:13;9.17;;;5.70;;
14611;SDS011;7392;52.078;11.650;2023-07-02T13:25:41;8.70;;;5.40;;
14611;SDS011;7392;52.078;11.650;2023-07-02T13:28:09;14.43;;;6.13;;
14611;SDS011;7392;52.078;11.650;2023-07-02T13:30:36;11.07;;;5.67;;
14611;SDS011;7392;52.078;11.650;2023-07-02T13:33:05;7.83;;;5.07;;
14611;SDS011;7392;52.078;11.650;2023-07-02T13:35:33;8.07;;;5.20;;
14611;SDS011;7392;52.078;11.650;2023-07-02T13:38:03;8.07;;;5.25;;
14611;SDS011;7392;52.078;11.650;2023-07-02T13:40:31;9.10;;;5.60;;
14611;SDS011;7392;52.078;11.650;2023-07-02T13:42:59;9.43;;;5.50;;
14611;SDS011;7392;52.078;11.650;2023-07-02T13:45:27;7.23;;;5.27;;
14611;SDS011;7392;52.078;11.650;2023-07-02T13:47:55;13.85;;;5.78;;
14611;SDS011;7392;52.078;11.650;2023-07-02T13:50:24;8.65;;;5.45;;
14611;SDS011;7392;52.078;11.650;2023-07-02T13:52:52;10.32;;;5.80;;
14611;SDS011;7392;52.078;11.650;2023-07-02T13:55:20;8.60;;;5.30;;
14611;SDS011;7392;52.078;11.650;2023-07-02T13:57:53;8.27;;;4.85;;
14611;SDS011;7392;52.078;11.650;2023-07-02T14:00:23;10.43;;;5.70;;
14611;SDS011;7392;52.078;11.650;2023-07-02T14:02:51;9.80;;;6.10;;
14611;SDS011;7392;52.078;11.650;2023-07-02T14:05:19;10.27;;;6.07;;
14611;SDS011;7392;52.078;11.650;2023-07-02T14:07:48;7.30;;;5.50;;
14611;SDS011;7392;52.078;11.650;2023-07-02T14:10:19;10.30;;;5.53;;
14611;SDS011;7392;52.078;11.650;2023-07-02T14:12:46;8.03;;;5.40;;
14611;SDS011;7392;52.078;11.650;2023-07-02T14:15:14;10.20;;;5.30;;
14611;SDS011;7392;52.078;11.650;2023-07-02T14:17:43;6.37;;;5.00;;
14611;SDS011;7392;52.078;11.650;2023-07-02T14:20:11;6.95;;;5.03;;
14611;SDS011;7392;52.078;11.650;2023-07-02T14:22:40;8.40;;;5.47;;
14611;SDS011;7392;52.078;11.650;2023-07-02T14:25:08;7.18;;;5.35;;
14611;SDS011;7392;52.078;11.650;2023-07-02T14:27:36;6.72;;;4.90;;
14611;SDS011;7392;52.078;11.650;2023-07-02T14:30:04;6.38;;;4.90;;
14611;SDS011;7392;52.078;11.650;2023-07-02T14:32:34;8.27;;;5.43;;
14611;SDS011;7392;52.078;11.650;2023-07-02T14:35:04;8.85;;;4.88;;
14611;SDS011;7392;52.078;11.650;2023-07-02T14:37:32;7.65;;;4.75;;
14611;SDS011;7392;52.078;11.650;2023-07-02T14:40:00;7.95;;;4.80;;
14611;SDS011;7392;52.078;11.650;2023-07-02T14:42:32;8.05;;;5.03;;
14611;SDS011;7392;52.078;11.650;2023-07-02T14:45:00;8.63;;;4.75;;
14611;SDS011;7392;52.078;11.650;2023-07-02T14:47:28;7.68;;;4.75;;
14611;SDS011;7392;52.078;11.650;2023-07-02T14:49:56;8.85;;;4.85;;
14611;SDS011;7392;52.078;11.650;2023-07-02T14:52:25;8.23;;;5.22;;